Latest Weather Observations for Moranbah Airport

IDQ60801

Issued at 9:32 am EST Tuesday 30 August 2016 (issued every 30 minutes, with the page automatically refreshed every 10 minutes)

About weather observations | Map of weather stations | Latest weather observations for QLD | Other Formats
Station Details ID: 034035 Name: MORANBAH AIRPORT Lat: -22.06 Lon: 148.08 Height: 232.2 m
Data from the previous 72 hours. | See also: Recent months at Moranbah Airport
Date/Time
EST
Temp
°C
App
Temp
°C
Dew
Point
°C
Rel
Hum
%
Delta-T
°C
Wind Press
QNH
hPa
Press
MSL
hPa
Rain since
9am
mm
Dir  Spd
km/h
Gust
km/h
Spd
kts
Gust
kts
30/09:00am 19.8 17.6 14.8 73 2.9 E 20 24 11 13 1025.0 1024.6 0.0
30/08:30am 17.9 15.6 14.0 78 2.3 E 19 24 10 13 1024.6 1024.1 0.0
30/08:00am 17.0 15.1 14.3 84 1.6 ESE 17 22 9 12 1024.4 1023.9 0.0
30/07:30am 15.3 12.9 13.7 90 0.9 SE 19 22 10 12 1024.2 1023.7 0.0
30/07:00am 14.5 11.9 13.2 92 0.7 SE 19 22 10 12 1023.8 1023.3 0.0
30/06:30am 14.0 11.5 13.4 96 0.3 SE 19 22 10 12 1023.5 1023.0 0.0
30/06:00am 12.5 10.2 11.9 96 0.3 SE 15 17 8 9 1022.9 1022.4 0.0
30/05:30am 12.6 11.9 12.0 96 0.3 SSE 7 9 4 5 1023.0 1022.5 0.0
30/05:00am 12.1 11.2 11.3 95 0.4 S 7 9 4 5 1022.5 1022.0 0.0
30/04:30am 12.0 11.5 10.9 93 0.6 ESE 4 7 2 4 1022.4 1021.9 0.0
30/04:00am 12.9 11.1 12.0 94 0.5 E 13 17 7 9 1022.1 1021.6 0.0
30/03:30am 12.8 9.9 12.2 96 0.3 ESE 19 22 10 12 1021.9 1021.4 0.0
30/03:00am 11.8 9.3 11.0 95 0.4 ESE 15 17 8 9 1022.0 1021.5 0.0
30/02:30am 11.5 8.5 10.6 94 0.5 SE 17 17 9 9 1022.3 1021.8 0.0
30/02:00am 11.6 9.0 10.7 94 0.5 SE 15 15 8 8 1022.5 1022.0 0.0
30/01:30am 11.8 9.5 10.5 92 0.7 SE 13 15 7 8 1022.7 1022.2 0.0
30/01:00am 12.5 10.0 11.1 91 0.7 SE 15 17 8 9 1022.8 1022.3 0.0
30/12:30am 12.8 9.9 10.9 88 1.0 ESE 17 17 9 9 1023.0 1022.5 0.0
30/12:00am 12.7 11.4 11.1 90 0.8 ESE 9 13 5 7 1023.1 1022.6 0.0
 
Date/Time
EST
Temp
°C
App
Temp
°C
Dew
Point
°C
Rel
Hum
%
Delta-T
°C
Wind Press
QNH
hPa
Press
MSL
hPa
Rain since
9am
mm
Dir  Spd
km/h
Gust
km/h
Spd
kts
Gust
kts
29/11:30pm 12.1 10.1 10.0 87 1.1 ESE 11 13 6 7 1023.1 1022.6 0.0
29/11:00pm 13.7 12.1 11.4 86 1.2 ESE 11 15 6 8 1023.2 1022.7 0.0
29/10:30pm 13.5 11.0 11.2 86 1.2 ESE 15 17 8 9 1023.1 1022.6 0.0
29/10:00pm 13.8 11.7 11.1 84 1.4 ESE 13 15 7 8 1023.2 1022.7 0.0
29/09:30pm 14.3 12.1 10.9 80 1.8 ESE 13 15 7 8 1023.4 1022.9 0.0
29/09:00pm 15.6 13.5 11.2 75 2.4 E 13 15 7 8 1023.3 1022.8 0.0
29/08:30pm 16.8 14.7 11.1 69 3.1 ENE 13 17 7 9 1023.3 1022.8 0.0
29/08:00pm 18.3 15.2 11.6 65 3.7 ENE 19 24 10 13 1023.1 1022.6 0.0
29/07:30pm 18.6 15.9 11.7 64 3.8 ENE 17 20 9 11 1022.7 1022.2 0.0
29/07:00pm 18.7 16.3 11.5 63 4.0 ENE 15 19 8 10 1022.3 1021.8 0.0
29/06:30pm 19.8 17.4 11.3 58 4.7 ENE 15 20 8 11 1021.8 1021.3 0.0
29/06:00pm 20.9 17.9 10.7 52 5.6 ENE 17 22 9 12 1021.5 1021.0 0.0
29/05:30pm 22.8 18.8 10.6 46 6.8 ENE 22 32 12 17 1020.9 1020.4 0.0
29/05:00pm 23.8 20.2 10.5 43 7.4 ENE 20 30 11 16 1020.9 1020.4 0.0
29/04:30pm 24.3 19.5 10.2 41 7.9 E 26 33 14 18 1020.7 1020.2 0.0
29/04:00pm 24.8 20.2 11.0 42 7.8 E 26 35 14 19 1020.6 1020.1 0.0
29/03:30pm 25.0 21.4 10.5 40 8.1 ENE 20 35 11 19 1020.5 1020.0 0.0
29/03:00pm 24.3 20.6 10.2 41 7.8 E 20 30 11 16 1020.6 1020.1 0.0
29/02:30pm 24.6 20.2 10.5 41 7.9 E 24 35 13 19 1021.0 1020.5 0.0
29/02:00pm 23.8 19.8 10.5 43 7.4 ESE 22 35 12 19 1021.5 1021.0 0.0
29/01:30pm 24.5 20.6 12.1 46 7.1 ENE 24 37 13 20 1021.9 1021.4 0.0
29/01:00pm 23.9 20.6 11.6 46 7.0 ENE 20 30 11 16 1022.3 1021.8 0.0
29/12:30pm 23.5 20.3 11.2 46 6.9 ENE 19 32 10 17 1022.6 1022.1 0.0
29/12:00pm 22.7 18.9 11.1 48 6.5 ENE 22 32 12 17 1023.2 1022.7 0.0
29/11:30am 22.9 19.4 12.2 51 6.1 ENE 22 32 12 17 1023.6 1023.1 0.0
29/11:00am 22.0 18.9 11.7 52 5.8 ENE 19 28 10 15 1023.9 1023.4 0.0
29/10:30am 21.2 17.6 11.8 55 5.3 E 22 30 12 16 1024.2 1023.7 0.0
29/10:00am 19.4 16.0 11.4 60 4.4 E 20 32 11 17 1024.5 1024.0 0.0
29/09:30am 19.1 15.5 11.7 62 4.1 ESE 22 33 12 18 1024.4 1023.9 0.0
29/09:00am 17.7 14.4 11.7 68 3.3 ESE 20 30 11 16 1024.3 1023.8 0.0
29/08:30am 15.9 12.5 11.3 74 2.5 SE 20 24 11 13 1024.2 1023.7 0.0
29/08:00am 13.9 10.5 10.7 81 1.7 SE 19 22 10 12 1024.0 1023.5 0.0
29/07:30am 11.7 8.0 9.6 87 1.1 SE 19 20 10 11 1023.5 1023.0 0.0
29/07:00am 9.8 6.3 8.6 92 0.6 SE 17 20 9 11 1023.3 1022.8 0.0
29/06:30am 8.0 4.1 6.9 93 0.5 SE 17 20 9 11 1023.0 1022.5 0.0
29/06:00am 7.8 4.6 6.9 94 0.4 SE 13 17 7 9 1022.7 1022.2 0.0
29/05:30am 7.0 3.9 5.5 90 0.7 SE 11 13 6 7 1022.4 1021.9 0.0
29/05:00am 7.7 4.3 6.0 89 0.8 SE 13 17 7 9 1022.0 1021.5 0.0
29/04:30am 7.8 3.7 6.3 90 0.7 SE 17 17 9 9 1021.7 1021.2 0.0
29/04:00am 8.2 4.1 6.3 88 0.9 SE 17 19 9 10 1021.5 1021.0 0.0
29/03:30am 8.1 4.4 6.4 89 0.8 SSE 15 17 8 9 1021.7 1021.2 0.0
29/03:00am 8.0 4.5 5.6 85 1.1 SSE 13 15 7 8 1021.9 1021.4 0.0
29/02:30am 9.1 6.2 6.4 83 1.3 SSE 11 11 6 6 1022.0 1021.5 0.0
29/02:00am 9.4 6.1 6.3 81 1.4 SSE 13 13 7 7 1022.2 1021.7 0.0
29/01:30am 9.4 5.6 5.9 79 1.6 SSE 15 15 8 8 1022.4 1021.9 0.0
29/01:00am 10.3 7.4 6.5 77 1.8 SSE 11 13 6 7 1022.3 1021.8 0.0
29/12:30am 9.5 7.0 6.4 81 1.5 SE 9 11 5 6 1022.1 1021.6 0.0
29/12:00am 8.1 5.6 4.7 79 1.5 ESE 7 9 4 5 1021.9 1021.4 0.0
 
Date/Time
EST
Temp
°C
App
Temp
°C
Dew
Point
°C
Rel
Hum
%
Delta-T
°C
Wind Press
QNH
hPa
Press
MSL
hPa
Rain since
9am
mm
Dir  Spd
km/h
Gust
km/h
Spd
kts
Gust
kts
28/11:30pm 9.1 5.6 5.3 77 1.7 ESE 13 15 7 8 1022.1 1021.6 0.0
28/11:00pm 10.3 6.1 5.7 73 2.1 ESE 17 19 9 10 1022.2 1021.7 0.0
28/10:30pm 11.6 8.5 5.5 66 2.9 ENE 11 13 6 7 1022.2 1021.7 0.0
28/10:00pm 12.3 8.9 5.9 65 3.0 ENE 13 15 7 8 1022.1 1021.6 0.0
28/09:30pm 12.6 9.9 5.5 62 3.4 ENE 9 13 5 7 1022.3 1021.8 0.0
28/09:00pm 13.0 10.1 4.9 58 3.8 E 9 13 5 7 1022.3 1021.8 0.0
28/08:30pm 14.1 10.2 5.2 55 4.2 E 15 17 8 9 1022.0 1021.5 0.0
28/08:00pm 14.6 10.3 5.1 53 4.5 ESE 17 20 9 11 1021.8 1021.3 0.0
28/07:30pm 13.6 9.6 5.0 56 4.0 SE 15 17 8 9 1021.4 1020.9 0.0
28/07:00pm 14.3 10.3 4.9 53 4.4 SE 15 17 8 9 1021.0 1020.5 0.0
28/06:30pm 15.6 11.9 4.3 47 5.3 SE 13 15 7 8 1020.8 1020.3 0.0
28/06:00pm 17.2 13.3 3.5 40 6.4 SE 13 15 7 8 1020.7 1020.2 0.0
28/05:30pm 20.5 15.7 2.8 31 8.4 ESE 17 20 9 11 1020.4 1019.9 0.0
28/05:00pm 21.6 16.4 2.3 28 9.1 ESE 19 24 10 13 1020.2 1019.7 0.0
28/04:30pm 22.2 17.0 2.3 27 9.5 E 19 24 10 13 1020.2 1019.7 0.0
28/04:00pm 22.2 16.8 1.3 25 9.7 ESE 19 28 10 15 1020.0 1019.5 0.0
28/03:30pm 22.5 16.9 1.5 25 9.9 E 20 30 11 16 1020.0 1019.5 0.0
28/03:00pm 22.6 17.1 1.6 25 9.9 E 20 30 11 16 1020.1 1019.6 0.0
28/02:30pm 21.9 15.8 0.4 24 9.8 E 22 28 12 15 1020.3 1019.8 0.0
28/02:00pm 22.0 16.4 1.1 25 9.7 ENE 20 30 11 16 1020.6 1020.1 0.0
28/01:30pm 21.8 16.7 3.0 29 9.0 E 19 24 10 13 1021.4 1020.9 0.0
28/01:00pm 20.6 14.9 0.4 26 9.1 E 20 37 11 20 1022.1 1021.6 0.0
28/12:30pm 20.3 15.0 1.7 29 8.6 E 19 32 10 17 1022.5 1022.0 0.0
28/12:00pm 20.3 15.0 3.1 32 8.2 ESE 20 30 11 16 1023.1 1022.6 0.0
28/11:30am 19.4 14.5 2.3 32 8.0 E 17 26 9 14 1023.7 1023.2 0.0
28/11:00am 19.0 14.1 4.0 37 7.2 E 19 28 10 15 1024.1 1023.6 0.0
28/10:30am 18.0 12.7 3.1 37 7.0 ESE 20 28 11 15 1024.4 1023.9 0.0
28/10:00am 17.0 11.3 3.0 39 6.5 ESE 22 28 12 15 1024.8 1024.3 0.0
28/09:30am 16.5 11.5 4.5 45 5.7 ESE 20 28 11 15 1024.8 1024.3 0.0
28/09:00am 14.9 9.4 4.0 48 5.0 ESE 22 33 12 18 1024.8 1024.3 0.0
28/08:30am 13.0 8.3 3.4 52 4.3 SE 17 20 9 11 1024.8 1024.3 0.0
28/08:00am 11.8 7.8 4.8 62 3.2 SE 15 19 8 10 1024.5 1024.0 0.0
28/07:30am 9.8 7.3 4.8 71 2.3 SE 7 13 4 7 1024.2 1023.7 0.0
28/07:00am 5.3 2.6 3.5 88 0.8 S 7 7 4 4 1023.8 1023.3 0.0
28/06:30am 4.2 0.5 2.4 88 0.7 SE 11 13 6 7 1023.5 1023.0 0.0
28/06:00am 4.2 0.5 2.2 87 0.8 SE 11 13 6 7 1023.2 1022.7 0.0
28/05:30am 3.5 0.7 2.0 90 0.6 SSE 6 7 3 4 1023.1 1022.6 0.0
28/05:00am 3.4 1.7 1.9 90 0.6 CALM 0 0 0 0 1022.8 1022.3 0.0
28/04:30am 4.1 1.3 1.8 85 0.9 SSE 6 7 3 4 1022.5 1022.0 0.0
28/04:00am 4.3 2.7 2.7 89 0.7 CALM 0 0 0 0 1022.6 1022.1 0.0
28/03:30am 4.1 2.4 2.0 86 0.8 CALM 0 0 0 0 1022.4 1021.9 0.0
28/03:00am 5.0 3.5 3.0 87 0.8 CALM 0 0 0 0 1022.4 1021.9 0.0
28/02:30am 4.9 3.3 2.6 85 0.9 CALM 0 0 0 0 1022.6 1022.1 0.0
28/02:00am 5.4 3.9 2.8 83 1.1 CALM 0 0 0 0 1022.7 1022.2 0.0
28/01:30am 5.2 2.4 2.0 80 1.3 NNW 6 7 3 4 1022.6 1022.1 0.0
28/01:00am 5.4 3.7 1.9 78 1.4 CALM 0 7 0 4 1022.7 1022.2 0.0
28/12:30am 6.4 4.7 2.1 74 1.8 CALM 0 0 0 0 1022.8 1022.3 0.0
28/12:00am 7.5 5.8 1.6 66 2.4 CALM 0 0 0 0 1022.9 1022.4 0.0
 
Date/Time
EST
Temp
°C
App
Temp
°C
Dew
Point
°C
Rel
Hum
%
Delta-T
°C
Wind Press
QNH
hPa
Press
MSL
hPa
Rain since
9am
mm
Dir  Spd
km/h
Gust
km/h
Spd
kts
Gust
kts
27/11:30pm 9.5 5.4 2.1 60 3.2 SSE 13 15 7 8 1022.8 1022.3 0.0
27/11:00pm 9.8 5.0 2.4 60 3.2 SSE 17 17 9 9 1022.9 1022.4 0.0
27/10:30pm 9.4 5.3 2.3 61 3.0 SSE 13 13 7 7 1023.1 1022.6 0.0
27/10:00pm 11.4 6.9 2.2 53 4.0 S 15 17 8 9 1023.0 1022.5 0.0
27/09:30pm 9.8 5.4 2.6 61 3.1 SSE 15 17 8 9 1022.8 1022.3 0.0
27/09:00pm 9.9 5.8 2.3 59 3.2 SE 13 17 7 9 1022.8 1022.3 0.0
27/08:30pm 10.8 6.8 2.6 57 3.6 SSE 13 15 7 8 1022.6 1022.1 0.0
27/08:00pm 11.4 7.4 2.7 55 3.8 SSE 13 15 7 8 1022.2 1021.7 0.0
27/07:30pm 12.5 8.0 2.4 50 4.5 SSE 15 17 8 9 1022.0 1021.5 0.0
27/07:00pm 13.2 8.8 2.7 49 4.7 SSE 15 17 8 9 1021.7 1021.2 0.0
27/06:30pm 14.1 9.5 1.7 43 5.5 SSE 15 17 8 9 1021.1 1020.6 0.0
27/06:00pm 16.0 11.4 1.3 37 6.5 SSE 15 19 8 10 1020.7 1020.2 0.0
27/05:30pm 18.7 14.8 1.2 31 7.9 S 11 15 6 8 1020.6 1020.1 0.0
27/05:00pm 19.6 15.7 1.1 29 8.4 S 11 19 6 10 1020.3 1019.8 0.0
27/04:30pm 19.9 16.0 0.9 28 8.6 SSE 11 20 6 11 1019.8 1019.3 0.0
27/04:00pm 20.4 15.7 0.8 27 8.9 SSE 15 20 8 11 1019.7 1019.2 0.0
27/03:30pm 20.6 16.8 1.5 28 8.8 SSE 11 22 6 12 1019.8 1019.3 0.0
27/03:00pm 20.8 17.0 1.6 28 8.9 SSW 11 19 6 10 1019.9 1019.4 0.0
27/02:30pm 20.2 16.7 1.1 28 8.7 ESE 9 19 5 10 1020.2 1019.7 0.0
27/02:00pm 19.5 15.4 0.0 27 8.7 SW 11 19 6 10 1020.5 1020.0 0.0
27/01:30pm 19.2 14.9 1.2 30 8.2 SSW 13 22 7 12 1021.1 1020.6 0.0
27/01:00pm 19.4 14.6 2.7 33 7.8 SW 17 26 9 14 1021.6 1021.1 0.0
27/12:30pm 18.1 13.6 2.4 35 7.3 S 15 30 8 16 1022.0 1021.5 0.0
27/12:00pm 18.1 14.2 3.2 37 7.0 SSW 13 24 7 13 1022.5 1022.0 0.0
27/11:30am 17.9 13.8 4.1 40 6.6 SSE 15 32 8 17 1022.9 1022.4 0.0
27/11:00am 16.8 11.5 2.8 39 6.4 SSE 20 32 11 17 1023.4 1022.9 0.0
27/10:30am 16.2 10.5 2.6 40 6.2 SE 22 30 12 16 1023.7 1023.2 0.0
27/10:00am 15.6 9.1 2.4 41 5.9 SE 26 33 14 18 1024.1 1023.6 0.0

Other Formats:

Comma delimited format used in spreadsheet applications
http://www.bom.gov.au/fwo/IDQ60801/IDQ60801.94397.axf

JavaScript Object Notation format (JSON) in row-major order
http://www.bom.gov.au/fwo/IDQ60801/IDQ60801.94397.json